Time;durP1;ratioP1;P1;durP2;ratioP2;P2;SDS_P1;SDS_P2;PMS_P1;PMS_P2;Temp;Humidity;BMP_temperature;BMP_pressure;BME280_temperature;BME280_humidity;BME280_pressure;Samples;Min_cycle;Max_cycle;Signal;HPM_P1;HPM_P2
2021/01/20 00:02:22;;;;;;;11.77;5.47;;;;;;;2.23;78.17;98145.14;119777;1145;65267;-82
2021/01/20 00:04:48;;;;;;;13.90;6.03;;;;;;;2.26;78.16;98144.96;119756;1145;65167;-82
2021/01/20 00:07:16;;;;;;;13.03;5.87;;;;;;;2.29;78.22;98143.94;119775;1145;65108;-82
2021/01/20 00:09:42;;;;;;;12.93;5.43;;;;;;;2.31;78.61;98142.09;119796;1144;65206;-84
2021/01/20 00:12:09;;;;;;;10.33;4.83;;;;;;;2.36;78.37;98150.61;119855;1146;65215;-85
2021/01/20 00:14:36;;;;;;;9.30;4.45;;;;;;;2.39;78.57;98146.01;119784;1145;65271;-82
2021/01/20 00:17:03;;;;;;;11.45;4.60;;;;;;;2.38;78.18;98146.95;119783;1147;65065;-83
2021/01/20 00:19:29;;;;;;;12.50;4.93;;;;;;;2.36;78.30;98148.82;119743;1145;65130;-81
2021/01/20 00:21:56;;;;;;;10.70;4.70;;;;;;;2.33;78.47;98148.97;119785;1145;65074;-82
2021/01/20 00:24:22;;;;;;;13.43;5.17;;;;;;;2.33;78.39;98154.23;120042;1144;65081;-81
2021/01/20 00:26:49;;;;;;;9.45;4.60;;;;;;;2.33;78.45;98148.13;119843;1145;65196;-81
2021/01/20 00:29:15;;;;;;;12.60;6.00;;;;;;;2.34;78.47;98142.77;119836;1144;65164;-82
2021/01/20 00:31:41;;;;;;;10.90;4.35;;;;;;;2.37;78.69;98150.52;119805;1144;65065;-81
2021/01/20 00:34:08;;;;;;;11.50;4.30;;;;;;;2.42;78.89;98145.02;119856;1144;65111;-85
2021/01/20 00:36:34;;;;;;;9.43;4.70;;;;;;;2.44;78.56;98140.50;119843;1144;65127;-81
2021/01/20 00:39:01;;;;;;;7.73;4.23;;;;;;;2.47;78.56;98144.74;119805;1144;65191;-82
2021/01/20 00:41:27;;;;;;;11.37;4.90;;;;;;;2.51;78.69;98148.92;119790;1144;65099;-80
2021/01/20 00:43:54;;;;;;;10.47;4.90;;;;;;;2.51;78.52;98139.23;119792;1144;65185;-82
2021/01/20 00:46:21;;;;;;;13.97;5.80;;;;;;;2.51;78.73;98148.92;119797;1144;65111;-82
2021/01/20 00:48:48;;;;;;;9.90;4.65;;;;;;;2.53;78.82;98152.31;119782;1144;65132;-86
2021/01/20 00:51:14;;;;;;;10.63;4.67;;;;;;;2.55;78.68;98145.20;119819;1144;65246;-81
2021/01/20 00:53:41;;;;;;;13.00;5.07;;;;;;;2.57;79.00;98148.59;119797;1144;65111;-81
2021/01/20 00:56:10;;;;;;;12.77;6.07;;;;;;;2.59;78.58;98147.56;119760;1144;65092;-82
2021/01/20 00:58:38;;;;;;;11.93;5.80;;;;;;;2.62;78.40;98147.41;119858;1144;65015;-82
2021/01/20 01:01:05;;;;;;;13.47;5.97;;;;;;;2.65;78.67;98151.66;120116;1145;65076;-81
2021/01/20 01:03:31;;;;;;;13.50;5.53;;;;;;;2.65;78.78;98152.51;119782;1144;65207;-82
2021/01/20 01:05:58;;;;;;;11.50;4.57;;;;;;;2.66;78.74;98153.35;119795;1144;65111;-82
2021/01/20 01:08:25;;;;;;;11.45;5.00;;;;;;;2.67;78.56;98149.78;119862;1145;65102;-84
2021/01/20 01:10:53;;;;;;;8.07;4.37;;;;;;;2.68;78.83;98157.63;119885;1144;65105;-80
2021/01/20 01:13:42;;;;;;;12.33;5.53;;;;;;;2.71;78.79;98151.33;119815;1144;65092;-82
2021/01/20 01:16:44;;;;;;;12.20;4.57;;;;;;;2.75;78.93;98158.14;119685;1144;65220;-81
2021/01/20 01:19:13;;;;;;;6.83;2.87;;;;;;;2.78;78.74;98160.59;119816;1144;65541;-82
2021/01/20 01:21:42;;;;;;;8.67;3.53;;;;;;;2.85;78.96;98159.32;119803;1144;65193;-82
2021/01/20 01:24:08;;;;;;;7.60;3.65;;;;;;;2.90;79.04;98154.65;119822;1144;65146;-82
2021/01/20 01:26:35;;;;;;;6.55;3.30;;;;;;;2.92;79.06;98149.28;119855;1145;65155;-81
2021/01/20 01:29:02;;;;;;;5.10;2.73;;;;;;;2.93;78.49;98148.37;119792;1144;65169;-82
2021/01/20 01:31:44;;;;;;;5.03;3.33;;;;;;;2.95;78.82;98134.15;119840;1144;65194;-81
2021/01/20 01:34:10;;;;;;;4.17;2.80;;;;;;;2.98;78.98;98144.52;119826;1144;65541;-82
2021/01/20 01:36:37;;;;;;;6.63;3.00;;;;;;;2.97;78.94;98145.45;119801;1144;65182;-81
2021/01/20 01:39:16;;;;;;;4.40;2.83;;;;;;;2.98;78.75;98149.79;119869;1144;65028;-85
2021/01/20 01:41:44;;;;;;;6.27;3.27;;;;;;;2.97;78.96;98147.25;119814;1144;65095;-81
2021/01/20 01:44:11;;;;;;;6.43;3.53;;;;;;;2.96;78.33;98146.40;119831;1144;65193;-82
2021/01/20 01:46:49;;;;;;;6.07;3.30;;;;;;;2.95;78.38;98160.52;119785;1144;65232;-84
2021/01/20 01:49:38;;;;;;;8.73;4.03;;;;;;;2.98;78.26;98154.22;119878;1144;65089;-84
2021/01/20 01:52:05;;;;;;;10.83;4.50;;;;;;;2.94;78.75;98158.83;119844;1145;65121;-81
2021/01/20 01:54:39;;;;;;;9.50;3.97;;;;;;;2.93;78.84;98156.28;119806;1144;65149;-82
2021/01/20 01:57:31;;;;;;;7.10;3.40;;;;;;;2.88;78.66;98158.32;119816;1145;65172;-83
2021/01/20 01:59:58;;;;;;;7.43;4.43;;;;;;;2.81;78.87;98151.69;119820;1144;65164;-82
2021/01/20 02:02:41;;;;;;;9.40;3.70;;;;;;;2.76;78.40;98159.84;119876;1144;64993;-83
2021/01/20 02:05:10;;;;;;;6.90;4.10;;;;;;;2.71;78.94;98160.08;119861;1144;65168;-86
2021/01/20 02:07:42;;;;;;;6.87;3.73;;;;;;;2.70;78.39;98162.81;119814;1144;65165;-82
2021/01/20 02:10:10;;;;;;;6.63;3.87;;;;;;;2.68;78.55;98164.69;119870;1144;65104;-83
2021/01/20 02:13:01;;;;;;;7.80;4.07;;;;;;;2.68;78.87;98151.51;119789;1144;65020;-85
2021/01/20 02:15:47;;;;;;;8.17;4.40;;;;;;;2.63;78.83;98156.17;119837;1144;65452;-82
2021/01/20 02:18:19;;;;;;;6.70;4.13;;;;;;;2.58;78.84;98153.78;119847;1144;65204;-82
2021/01/20 02:21:02;;;;;;;8.80;4.00;;;;;;;2.59;78.85;98162.53;119769;1145;65135;-82
2021/01/20 02:23:30;;;;;;;3.63;3.03;;;;;;;2.61;78.90;98160.69;119818;1145;65288;-88
2021/01/20 02:26:25;;;;;;;6.00;3.57;;;;;;;2.63;79.00;98158.81;119828;1145;65088;-84
2021/01/20 02:30:10;;;;;;;5.30;3.60;;;;;;;2.68;79.02;98159.42;119338;1147;65091;-86
2021/01/20 02:32:54;;;;;;;5.10;2.80;;;;;;;2.71;78.58;98164.50;119855;1144;65127;-82
2021/01/20 02:35:58;;;;;;;3.87;3.10;;;;;;;2.76;78.98;98156.35;119755;1145;65142;-85
2021/01/20 02:38:25;;;;;;;4.27;3.00;;;;;;;2.78;78.67;98159.75;119831;1144;65047;-84
2021/01/20 02:41:00;;;;;;;4.63;2.90;;;;;;;2.81;79.31;98156.95;119820;1145;65076;-83
2021/01/20 02:43:52;;;;;;;5.40;3.23;;;;;;;2.80;79.16;98153.47;119861;1144;65120;-82
2021/01/20 02:46:46;;;;;;;5.97;3.00;;;;;;;2.77;78.80;98163.33;119652;1145;65010;-86
2021/01/20 02:49:20;;;;;;;6.08;3.42;;;;;;;2.75;78.74;98186.30;119818;1144;65220;-82
2021/01/20 02:52:12;;;;;;;6.40;3.90;;;;;;;2.74;78.87;98195.99;119826;1144;65110;-83
2021/01/20 02:55:21;;;;;;;6.43;4.20;;;;;;;2.73;79.07;98196.05;119514;1144;65075;-82
2021/01/20 02:58:18;;;;;;;7.17;4.27;;;;;;;2.72;78.63;98211.02;119636;1144;65174;-82
2021/01/20 03:01:05;;;;;;;6.37;4.10;;;;;;;2.72;79.11;98205.75;119831;1144;65103;-81
2021/01/20 03:03:33;;;;;;;6.07;3.87;;;;;;;2.74;78.89;98206.54;119766;1145;65589;-82
2021/01/20 03:06:01;;;;;;;5.23;3.77;;;;;;;2.76;78.69;98202.02;119839;1144;65082;-83
2021/01/20 03:08:30;;;;;;;6.00;3.30;;;;;;;2.77;78.92;98202.87;119796;1144;65263;-85
2021/01/20 03:10:56;;;;;;;6.13;3.80;;;;;;;2.76;78.68;98201.17;119815;1144;65049;-83
2021/01/20 03:13:24;;;;;;;8.10;4.37;;;;;;;2.75;79.05;98208.23;119775;1145;65174;-82
2021/01/20 03:15:52;;;;;;;11.73;5.20;;;;;;;2.75;78.52;98216.14;119821;1144;65519;-85
2021/01/20 03:18:18;;;;;;;16.13;6.47;;;;;;;2.72;78.87;98211.02;119872;1144;65098;-82
2021/01/20 03:20:44;;;;;;;26.60;9.90;;;;;;;2.66;78.59;98208.71;119771;1144;65124;-83
2021/01/20 03:23:10;;;;;;;27.07;11.20;;;;;;;2.63;78.86;98206.25;119631;1145;65164;-79
2021/01/20 03:25:37;;;;;;;28.10;12.10;;;;;;;2.60;78.72;98190.59;119485;1144;65446;-81
2021/01/20 03:28:03;;;;;;;21.33;10.57;;;;;;;2.59;79.02;98200.28;119496;1144;65188;-82
2021/01/20 03:30:30;;;;;;;18.80;8.67;;;;;;;2.64;78.92;98194.77;119578;1144;65195;-81
2021/01/20 03:32:56;;;;;;;15.00;7.10;;;;;;;2.68;78.85;98191.05;119591;1145;65098;-83
2021/01/20 03:35:23;;;;;;;10.80;5.80;;;;;;;2.72;78.97;98195.20;119711;1144;65075;-81
2021/01/20 03:37:49;;;;;;;10.55;6.80;;;;;;;2.76;79.39;98207.30;119831;1144;65108;-84
2021/01/20 03:40:15;;;;;;;9.90;6.70;;;;;;;2.76;79.14;98195.91;119809;1144;65111;-81
2021/01/20 03:42:41;;;;;;;11.15;7.15;;;;;;;2.77;78.96;98202.87;119825;1144;65116;-81
2021/01/20 03:45:09;;;;;;;11.83;6.60;;;;;;;2.75;79.31;98202.96;119860;1144;65106;-82
2021/01/20 03:47:35;;;;;;;8.20;5.53;;;;;;;2.76;79.18;98202.02;119831;1145;65564;-83
2021/01/20 03:50:02;;;;;;;8.63;5.37;;;;;;;2.75;78.81;98197.69;119766;1148;65143;-82
2021/01/20 03:52:28;;;;;;;11.48;6.30;;;;;;;2.71;79.13;98202.27;119806;1145;65133;-80
2021/01/20 03:54:57;;;;;;;14.43;6.93;;;;;;;2.67;79.08;98211.30;119811;1144;65097;-84
2021/01/20 03:57:23;;;;;;;17.35;7.85;;;;;;;2.66;79.28;98206.08;119823;1144;65111;-83
2021/01/20 03:59:50;;;;;;;17.00;7.43;;;;;;;2.65;79.42;98209.65;119821;1144;65108;-83
2021/01/20 04:02:16;;;;;;;13.93;6.63;;;;;;;2.64;78.74;98213.22;119872;1144;65085;-86
2021/01/20 04:04:44;;;;;;;17.77;8.77;;;;;;;2.63;79.24;98215.02;119812;1144;65162;-83
2021/01/20 04:07:11;;;;;;;13.80;8.23;;;;;;;2.61;79.04;98208.98;119816;1144;65132;-81
2021/01/20 04:09:37;;;;;;;16.03;8.50;;;;;;;2.56;78.99;98200.46;119855;1144;65124;-83
2021/01/20 04:12:04;;;;;;;17.23;10.40;;;;;;;2.50;78.97;98203.42;119823;1144;65104;-83
2021/01/20 04:14:30;;;;;;;31.43;14.67;;;;;;;2.44;78.83;98193.20;119813;1145;65121;-81
2021/01/20 04:16:56;;;;;;;26.13;12.73;;;;;;;2.41;79.35;98199.47;119774;1145;65162;-81
2021/01/20 04:19:23;;;;;;;23.30;10.85;;;;;;;2.40;78.99;98196.92;119782;1144;65108;-82
2021/01/20 04:21:49;;;;;;;16.07;9.40;;;;;;;2.40;79.17;98187.23;120167;1147;65171;-81
2021/01/20 04:24:17;;;;;;;11.63;6.00;;;;;;;2.41;79.04;98186.30;119835;1144;65538;-84
2021/01/20 04:26:44;;;;;;;12.63;6.67;;;;;;;2.48;79.31;98188.60;119846;1144;65085;-85
2021/01/20 04:29:11;;;;;;;17.77;7.43;;;;;;;2.50;79.27;98190.24;120052;1144;65593;-82
2021/01/20 04:31:41;;;;;;;13.87;7.30;;;;;;;2.55;79.32;98197.91;119837;1144;65166;-80
2021/01/20 04:34:08;;;;;;;11.73;6.40;;;;;;;2.53;79.23;98195.34;119826;1145;65150;-82
2021/01/20 04:36:35;;;;;;;9.00;5.67;;;;;;;2.53;78.88;98194.48;119860;1144;65220;-82
2021/01/20 04:39:02;;;;;;;13.53;6.53;;;;;;;2.49;79.15;98192.97;119856;1146;65068;-83
2021/01/20 04:41:29;;;;;;;13.45;6.75;;;;;;;2.46;79.49;98186.06;119824;1144;65567;-85
2021/01/20 04:43:55;;;;;;;14.27;7.70;;;;;;;2.47;79.25;98193.02;119806;1145;65066;-81
2021/01/20 04:46:23;;;;;;;15.90;8.55;;;;;;;2.50;79.49;98184.97;119801;1145;65085;-81
2021/01/20 04:48:53;;;;;;;16.50;8.57;;;;;;;2.51;79.32;98186.67;119891;1145;65101;-82
2021/01/20 04:51:23;;;;;;;23.23;8.17;;;;;;;2.53;79.49;98173.41;119736;1145;65197;-83
2021/01/20 04:53:54;;;;;;;18.73;8.00;;;;;;;2.57;79.16;98175.80;119752;1145;65502;-82
2021/01/20 04:56:23;;;;;;;17.27;8.60;;;;;;;2.57;79.28;98167.05;119836;1145;65105;-84
2021/01/20 04:58:55;;;;;;;23.00;12.05;;;;;;;2.57;78.80;98169.68;119803;1144;65500;-84
2021/01/20 05:01:22;;;;;;;70.77;28.50;;;;;;;2.53;79.02;98161.08;120149;1144;65073;-84
2021/01/20 05:03:51;;;;;;;45.57;21.47;;;;;;;2.51;79.40;98157.68;119881;1144;65098;-86
2021/01/20 05:06:17;;;;;;;57.90;25.60;;;;;;;2.51;79.15;98160.31;119826;1144;65251;-84
2021/01/20 05:08:43;;;;;;;39.47;19.17;;;;;;;2.51;79.40;98160.31;119763;1146;65156;-82
2021/01/20 05:11:09;;;;;;;28.97;16.00;;;;;;;2.55;79.07;98171.56;120235;1144;65114;-85
2021/01/20 05:13:36;;;;;;;19.23;11.00;;;;;;;2.55;79.29;98176.83;119894;1144;65105;-86
2021/01/20 05:16:02;;;;;;;24.87;13.80;;;;;;;2.58;79.45;98181.92;119791;1144;65184;-80
2021/01/20 05:18:48;;;;;;;43.35;23.15;;;;;;;2.58;79.42;98181.92;119773;1144;65286;-83
2021/01/20 05:21:18;;;;;;;33.83;16.33;;;;;;;2.62;79.17;98188.74;119836;1145;65159;-82
2021/01/20 05:23:45;;;;;;;26.33;13.10;;;;;;;2.63;79.49;98196.56;119829;1144;65101;-84
2021/01/20 05:26:11;;;;;;;24.37;11.40;;;;;;;2.64;79.28;98203.53;119862;1145;65063;-81
2021/01/20 05:28:38;;;;;;;20.30;10.27;;;;;;;2.66;79.53;98190.26;119784;1145;65204;-87
2021/01/20 05:31:04;;;;;;;23.35;11.05;;;;;;;2.66;79.32;98191.11;120041;1144;65201;-84
2021/01/20 05:33:39;;;;;;;21.80;10.30;;;;;;;2.69;78.98;98200.66;119857;1144;65182;-84
2021/01/20 05:36:14;;;;;;;17.50;7.80;;;;;;;2.71;79.50;98188.23;119868;1145;65214;-86
2021/01/20 05:38:45;;;;;;;11.35;7.50;;;;;;;2.73;79.30;98185.50;119799;1145;65139;-83
2021/01/20 05:41:18;;;;;;;14.77;7.67;;;;;;;2.72;79.17;98179.38;119787;1144;65095;-81
2021/01/20 05:43:46;;;;;;;15.50;8.87;;;;;;;2.73;79.03;98174.95;120032;1144;65203;-82
2021/01/20 05:46:13;;;;;;;13.15;7.75;;;;;;;2.73;79.34;98181.08;119959;1145;65103;-81
2021/01/20 05:48:47;;;;;;;15.85;9.00;;;;;;;2.74;79.36;98182.81;119848;1144;65047;-81
2021/01/20 05:51:14;;;;;;;13.05;8.05;;;;;;;2.74;79.12;98174.05;119903;1144;65098;-83
2021/01/20 05:53:55;;;;;;;13.23;7.13;;;;;;;2.71;78.78;98183.81;120054;1146;65113;-84
2021/01/20 05:56:25;;;;;;;11.15;6.60;;;;;;;2.71;79.23;98172.41;119898;1144;65178;-83
2021/01/20 05:58:53;;;;;;;13.45;7.65;;;;;;;2.70;79.52;98178.63;119864;1144;65156;-83
2021/01/20 06:01:20;;;;;;;10.43;6.70;;;;;;;2.69;79.35;98179.56;120065;1144;65068;-84
2021/01/20 06:03:47;;;;;;;14.23;8.33;;;;;;;2.66;79.44;98179.72;119928;1144;65110;-81
2021/01/20 06:06:15;;;;;;;15.33;7.57;;;;;;;2.66;79.49;98184.98;119795;1144;65143;-87
2021/01/20 06:08:42;;;;;;;15.93;8.70;;;;;;;2.64;79.55;98184.23;119864;1144;65175;-83
2021/01/20 06:11:09;;;;;;;11.60;7.03;;;;;;;2.64;79.22;98187.72;120123;1144;65103;-82
2021/01/20 06:13:36;;;;;;;12.40;6.85;;;;;;;2.65;79.09;98192.05;119819;1145;65082;-85
2021/01/20 06:16:13;;;;;;;16.07;7.40;;;;;;;2.68;79.11;98193.69;119804;1144;65075;-82
2021/01/20 06:18:54;;;;;;;14.90;7.20;;;;;;;2.69;79.23;98187.47;119829;1147;65297;-83
2021/01/20 06:21:21;;;;;;;11.50;6.87;;;;;;;2.73;79.44;98193.41;120130;1144;65095;-82
2021/01/20 06:24:00;;;;;;;13.10;7.90;;;;;;;2.73;78.98;98188.98;119959;1146;65108;-83
2021/01/20 06:26:27;;;;;;;18.73;10.37;;;;;;;2.79;79.51;98185.17;120054;1147;65104;-81
2021/01/20 06:28:58;;;;;;;13.13;8.50;;;;;;;2.82;79.37;98187.66;119879;1144;65105;-84
2021/01/20 06:31:28;;;;;;;12.90;7.53;;;;;;;2.84;79.66;98186.63;120843;1144;65185;-79
2021/01/20 06:33:55;;;;;;;12.73;7.30;;;;;;;2.87;79.37;98194.39;120137;1144;65594;-83
2021/01/20 06:36:33;;;;;;;11.07;6.87;;;;;;;2.89;79.56;98196.94;119784;1144;65204;-82
2021/01/20 06:39:00;;;;;;;11.10;7.20;;;;;;;2.94;79.18;98192.27;119869;1144;65094;-86
2021/01/20 06:41:40;;;;;;;15.10;7.73;;;;;;;2.98;79.35;98196.41;119833;1144;64993;-82
2021/01/20 06:44:12;;;;;;;21.47;11.37;;;;;;;2.96;79.00;98206.20;119862;1147;65142;-84
2021/01/20 06:46:57;;;;;;;18.87;10.83;;;;;;;3.00;78.90;98201.63;119792;1144;65133;-85
2021/01/20 06:49:24;;;;;;;17.73;8.90;;;;;;;3.02;79.18;98197.95;119852;1145;65127;-82
2021/01/20 06:52:11;;;;;;;15.90;9.15;;;;;;;3.03;79.34;98197.02;119839;1145;65092;-82
2021/01/20 06:54:40;;;;;;;12.37;8.00;;;;;;;3.04;79.14;98198.72;119843;1145;65079;-84
2021/01/20 06:57:25;;;;;;;12.70;7.20;;;;;;;3.06;78.81;98196.02;119936;1144;65082;-81
2021/01/20 07:00:07;;;;;;;23.50;10.40;;;;;;;3.09;78.70;98191.41;119838;1144;65074;-82
2021/01/20 07:02:56;;;;;;;17.70;10.00;;;;;;;3.14;78.95;98201.71;119862;1144;65110;-83
2021/01/20 07:05:40;;;;;;;20.30;9.13;;;;;;;3.16;78.90;98205.10;119659;1148;65143;-84
2021/01/20 07:08:09;;;;;;;18.05;8.90;;;;;;;3.15;78.78;98198.98;119629;1146;65053;-82
2021/01/20 07:11:00;;;;;;;14.73;8.67;;;;;;;3.17;78.84;98188.33;119780;1147;65162;-83
2021/01/20 07:13:34;;;;;;;14.30;8.75;;;;;;;3.18;78.65;98188.27;119627;1145;65079;-83
2021/01/20 07:16:01;;;;;;;17.30;7.87;;;;;;;3.22;78.62;98188.94;119757;1145;65220;-82
2021/01/20 07:18:27;;;;;;;10.70;6.50;;;;;;;3.23;78.57;98188.84;119725;1145;65146;-82
2021/01/20 07:20:54;;;;;;;14.20;8.20;;;;;;;3.25;78.50;98179.07;119702;1145;65165;-82
2021/01/20 07:23:21;;;;;;;22.70;10.33;;;;;;;3.30;78.54;98189.34;119688;1144;65108;-85
2021/01/20 07:25:50;;;;;;;14.63;9.67;;;;;;;3.32;78.50;98184.85;119615;1147;65146;-86
2021/01/20 07:28:18;;;;;;;13.87;7.57;;;;;;;3.33;78.28;98175.14;119752;1146;65067;-83
2021/01/20 07:30:45;;;;;;;13.73;7.00;;;;;;;3.31;78.01;98180.52;119720;1146;65110;-83
2021/01/20 07:33:22;;;;;;;11.77;7.47;;;;;;;3.30;78.49;98189.34;119730;1144;65146;-81
2021/01/20 07:35:49;;;;;;;18.65;10.40;;;;;;;3.31;78.51;98183.16;119803;1147;65203;-82
2021/01/20 07:38:16;;;;;;;14.83;7.47;;;;;;;3.35;78.55;98181.17;119814;1144;65539;-81
2021/01/20 07:40:44;;;;;;;12.73;7.63;;;;;;;3.37;78.10;98190.73;119969;1144;65012;-82
2021/01/20 07:43:22;;;;;;;16.47;7.27;;;;;;;3.40;78.61;98187.90;120036;1144;65072;-82
2021/01/20 07:45:50;;;;;;;15.23;8.53;;;;;;;3.49;78.58;98187.36;119866;1144;65087;-83
2021/01/20 07:48:17;;;;;;;12.57;8.23;;;;;;;3.58;78.48;98187.80;119505;1148;65204;-86
2021/01/20 07:50:47;;;;;;;15.27;8.63;;;;;;;3.67;78.27;98184.61;119842;1144;65265;-79
2021/01/20 07:53:18;;;;;;;12.57;7.37;;;;;;;3.77;78.64;98201.63;119957;1147;65073;-80
2021/01/20 07:55:46;;;;;;;17.17;8.20;;;;;;;3.86;78.32;98192.31;119897;1146;65567;-82
2021/01/20 07:58:14;;;;;;;11.40;6.73;;;;;;;3.95;78.11;98187.35;120002;1144;65159;-79
2021/01/20 08:00:47;;;;;;;11.37;6.43;;;;;;;3.99;78.37;98185.36;119748;1144;65041;-86
2021/01/20 08:03:15;;;;;;;9.67;6.50;;;;;;;3.94;78.48;98190.91;119864;1147;65255;-84
2021/01/20 08:05:43;;;;;;;11.70;7.37;;;;;;;3.86;77.68;98174.67;119976;1144;65088;-82
2021/01/20 08:08:12;;;;;;;11.47;7.00;;;;;;;3.81;77.90;98187.28;119967;1144;65046;-85
2021/01/20 08:10:41;;;;;;;15.87;8.13;;;;;;;3.75;77.83;98183.24;119901;1144;65133;-80
2021/01/20 08:13:14;;;;;;;13.80;8.23;;;;;;;3.70;78.40;98184.45;119887;1147;65155;-83
2021/01/20 08:15:44;;;;;;;25.57;12.53;;;;;;;3.68;77.82;98176.59;119671;1146;65351;-81
2021/01/20 08:18:13;;;;;;;27.13;12.50;;;;;;;3.64;78.14;98182.16;119632;1147;65218;-83
2021/01/20 08:20:41;;;;;;;78.60;27.23;;;;;;;3.62;78.00;98176.95;119713;1146;65108;-83
2021/01/20 08:23:40;;;;;;;41.40;16.67;;;;;;;3.62;77.95;98165.53;119645;1148;65120;-87
2021/01/20 08:26:07;;;;;;;40.27;19.10;;;;;;;3.73;78.22;98182.46;119661;1147;65105;-84
2021/01/20 08:28:34;;;;;;;30.30;13.03;;;;;;;3.86;78.12;98174.67;119836;1144;65251;-81
2021/01/20 08:31:27;;;;;;;31.83;14.87;;;;;;;4.00;77.84;98179.13;119598;1144;65580;-82
2021/01/20 08:34:19;;;;;;;39.53;19.53;;;;;;;4.16;77.77;98193.14;119832;1147;65124;-82
2021/01/20 08:37:07;;;;;;;41.37;20.73;;;;;;;4.29;77.12;98187.97;119795;1144;65223;-83
2021/01/20 08:39:50;;;;;;;33.53;18.13;;;;;;;4.37;77.92;98185.70;119827;1144;65225;-81
2021/01/20 08:42:18;;;;;;;18.10;12.20;;;;;;;4.47;77.94;98192.14;119957;1146;65092;-83
2021/01/20 08:45:10;;;;;;;20.90;12.33;;;;;;;4.58;76.99;98187.05;119903;1144;65131;-84
2021/01/20 08:47:49;;;;;;;15.17;8.67;;;;;;;4.76;77.44;98197.42;119949;1147;65105;-85
2021/01/20 08:50:31;;;;;;;18.37;9.00;;;;;;;5.00;76.69;98198.53;119831;1144;65079;-81
2021/01/20 08:53:00;;;;;;;13.17;7.80;;;;;;;5.14;76.39;98205.59;119768;1144;65178;-84
2021/01/20 08:55:35;;;;;;;12.77;7.07;;;;;;;5.28;76.39;98205.59;119822;1144;65069;-85
2021/01/20 08:58:21;;;;;;;12.63;7.50;;;;;;;5.30;76.57;98202.83;119673;1144;65127;-83
2021/01/20 09:00:55;;;;;;;12.33;6.97;;;;;;;5.25;76.05;98196.98;119720;1144;65136;-82
2021/01/20 09:03:27;;;;;;;9.70;6.73;;;;;;;5.30;76.48;98194.89;119741;1144;65429;-83
2021/01/20 09:05:55;;;;;;;8.90;6.53;;;;;;;5.44;76.51;98192.20;119750;1144;65108;-81
2021/01/20 09:08:23;;;;;;;14.13;7.40;;;;;;;5.56;76.43;98201.99;119812;1146;65153;-81
2021/01/20 09:10:52;;;;;;;13.17;8.03;;;;;;;5.54;75.09;98195.95;119687;1144;65506;-87
2021/01/20 09:13:19;;;;;;;12.00;7.35;;;;;;;5.43;75.97;98209.03;119798;1146;65231;-80
2021/01/20 09:15:49;;;;;;;21.77;10.43;;;;;;;5.36;75.97;98202.44;119742;1147;65256;-84
2021/01/20 09:18:16;;;;;;;13.83;8.53;;;;;;;5.28;75.58;98210.00;119671;1147;65175;-84
2021/01/20 09:20:44;;;;;;;16.07;8.50;;;;;;;5.21;75.90;98206.05;119732;1144;65082;-81
2021/01/20 09:23:11;;;;;;;16.53;8.70;;;;;;;5.15;75.44;98209.94;119843;1144;65435;-83
2021/01/20 09:25:37;;;;;;;16.10;9.23;;;;;;;5.07;75.78;98199.84;119784;1145;65209;-83
2021/01/20 09:28:05;;;;;;;13.65;9.00;;;;;;;5.03;75.82;98198.36;119815;1144;65089;-82
2021/01/20 09:30:32;;;;;;;13.60;7.50;;;;;;;4.99;75.06;98204.78;119854;1145;64964;-86
2021/01/20 09:32:58;;;;;;;14.07;8.77;;;;;;;4.98;76.44;98208.38;119715;1144;65103;-86
2021/01/20 09:35:25;;;;;;;11.27;7.37;;;;;;;5.09;74.94;98211.20;119890;1145;65909;-85
2021/01/20 09:37:55;;;;;;;13.03;7.83;;;;;;;5.29;75.88;98209.08;119830;1145;65105;-83
2021/01/20 09:40:24;;;;;;;14.37;7.73;;;;;;;5.49;75.20;98207.80;120051;1148;65101;-82
2021/01/20 09:42:51;;;;;;;10.65;6.45;;;;;;;5.66;75.34;98196.92;120000;1145;65107;-83
2021/01/20 09:45:26;;;;;;;9.27;6.03;;;;;;;5.78;75.45;98195.27;119776;1144;65548;-84
2021/01/20 09:48:02;;;;;;;12.97;6.70;;;;;;;5.76;75.43;98187.43;119998;1145;65125;-82
2021/01/20 09:50:35;;;;;;;8.88;5.65;;;;;;;5.78;75.09;98187.32;119717;1144;65131;-82
2021/01/20 09:53:03;;;;;;;9.27;6.93;;;;;;;5.87;75.90;98181.42;119629;1144;65098;-82
2021/01/20 09:55:32;;;;;;;10.47;6.70;;;;;;;5.97;75.08;98190.47;119704;1144;65173;-82
2021/01/20 09:58:07;;;;;;;9.97;6.13;;;;;;;6.04;74.32;98194.41;119643;1144;65243;-84
2021/01/20 10:00:36;;;;;;;9.53;6.20;;;;;;;6.11;75.12;98185.11;119699;1145;65028;-82
2021/01/20 10:03:06;;;;;;;7.90;5.70;;;;;;;6.17;74.31;98181.17;119824;1145;65205;-82
2021/01/20 10:05:33;;;;;;;11.70;7.20;;;;;;;6.13;73.94;98171.75;119887;1144;65082;-83
2021/01/20 10:08:00;;;;;;;13.10;7.60;;;;;;;5.94;74.55;98185.39;119916;1147;65079;-84
2021/01/20 10:10:27;;;;;;;11.40;6.50;;;;;;;5.75;74.67;98180.44;119762;1145;65239;-84
2021/01/20 10:12:55;;;;;;;12.43;6.73;;;;;;;5.64;74.25;98172.34;119884;1144;65133;-82
2021/01/20 10:15:23;;;;;;;14.10;8.60;;;;;;;5.67;75.02;98174.81;119879;1145;65187;-82
2021/01/20 10:17:52;;;;;;;19.45;8.75;;;;;;;5.84;75.53;98178.97;119770;1144;65099;-84
2021/01/20 10:20:19;;;;;;;10.60;6.65;;;;;;;6.00;74.67;98171.73;119854;1144;65103;-85
2021/01/20 10:22:45;;;;;;;18.80;8.73;;;;;;;6.17;74.91;98174.09;119898;1144;65088;-85
2021/01/20 10:25:12;;;;;;;14.60;8.43;;;;;;;6.31;74.87;98165.19;119829;1144;65166;-84
2021/01/20 10:27:38;;;;;;;17.50;8.25;;;;;;;6.40;73.71;98163.70;119846;1146;65436;-82
2021/01/20 10:30:05;;;;;;;10.47;6.30;;;;;;;6.37;74.29;98166.58;119473;1148;65551;-85
2021/01/20 10:32:31;;;;;;;12.53;6.20;;;;;;;6.43;74.17;98163.50;119628;1144;65108;-81
2021/01/20 10:34:58;;;;;;;13.20;6.60;;;;;;;6.52;74.15;98167.30;119782;1145;65191;-84
2021/01/20 10:37:24;;;;;;;10.30;6.05;;;;;;;6.57;74.02;98166.03;119886;1144;65108;-85
2021/01/20 10:39:51;;;;;;;9.47;5.67;;;;;;;6.63;73.91;98170.91;119900;1144;65103;-83
2021/01/20 10:42:17;;;;;;;12.13;6.90;;;;;;;6.64;73.59;98161.98;119670;1144;65098;-85
2021/01/20 10:44:47;;;;;;;18.43;9.73;;;;;;;6.66;73.70;98165.38;119757;1144;65197;-87
2021/01/20 10:47:14;;;;;;;14.73;8.00;;;;;;;6.60;72.63;98160.50;119770;1144;66475;-82
2021/01/20 10:49:43;;;;;;;15.65;7.75;;;;;;;6.44;72.21;98173.15;119644;1144;65852;-81
2021/01/20 10:52:15;;;;;;;19.20;8.73;;;;;;;6.33;73.16;98163.27;119582;1144;65082;-86
2021/01/20 10:54:42;;;;;;;15.47;7.50;;;;;;;6.26;73.66;98158.50;119801;1144;65104;-88
2021/01/20 10:57:09;;;;;;;13.50;7.50;;;;;;;6.26;72.99;98174.41;119718;1146;65101;-82
2021/01/20 10:59:43;;;;;;;17.03;7.40;;;;;;;6.28;74.18;98169.84;119660;1144;65110;-82
2021/01/20 11:02:13;;;;;;;23.27;11.13;;;;;;;6.31;72.33;98169.65;119814;1144;65146;-83
2021/01/20 11:04:40;;;;;;;18.57;9.67;;;;;;;6.34;73.42;98166.77;119915;1144;65612;-83
2021/01/20 11:07:08;;;;;;;17.20;8.77;;;;;;;6.37;72.97;98169.23;119873;1144;65130;-82
2021/01/20 11:09:34;;;;;;;17.97;10.40;;;;;;;6.31;73.95;98167.00;119919;1144;65075;-83
2021/01/20 11:12:03;;;;;;;19.80;10.00;;;;;;;6.22;73.06;98169.30;119914;1144;65111;-83
2021/01/20 11:14:30;;;;;;;17.20;9.23;;;;;;;6.13;73.26;98175.25;119992;1144;65168;-82
2021/01/20 11:16:57;;;;;;;16.10;7.13;;;;;;;6.11;73.45;98168.36;120006;1144;65066;-82
2021/01/20 11:19:24;;;;;;;11.90;6.50;;;;;;;6.14;72.94;98171.64;119963;1144;65012;-83
2021/01/20 11:21:52;;;;;;;16.67;9.17;;;;;;;6.08;73.06;98164.10;119946;1144;65113;-89
2021/01/20 11:24:20;;;;;;;19.77;9.40;;;;;;;6.03;73.09;98166.20;119917;1144;65213;-82
2021/01/20 11:26:47;;;;;;;30.05;15.65;;;;;;;5.98;73.62;98163.05;119941;1144;65165;-85
2021/01/20 11:29:14;;;;;;;27.50;13.77;;;;;;;5.96;73.47;98170.23;119856;1148;65204;-85
2021/01/20 11:31:41;;;;;;;28.33;14.13;;;;;;;5.92;73.89;98155.51;119768;1144;65077;-87
2021/01/20 11:34:08;;;;;;;19.10;9.60;;;;;;;5.92;73.53;98155.51;119636;1144;65105;-83
2021/01/20 11:36:35;;;;;;;22.50;11.40;;;;;;;5.91;73.30;98159.08;119518;1144;65165;-82
2021/01/20 11:39:05;;;;;;;21.67;10.50;;;;;;;5.92;73.67;98152.86;119468;1147;65140;-83
2021/01/20 11:41:36;;;;;;;20.23;8.50;;;;;;;5.98;73.12;98146.27;119411;1144;65580;-83
2021/01/20 11:44:02;;;;;;;25.43;10.50;;;;;;;6.05;73.05;98151.07;119572;1144;65654;-82
2021/01/20 11:46:30;;;;;;;26.43;11.40;;;;;;;6.09;73.29;98155.19;119869;1146;65666;-83